Time;durP1;ratioP1;P1;durP2;ratioP2;P2;SDS_P1;SDS_P2;PMS_P1;PMS_P2;Temp;Humidity;BMP_temperature;BMP_pressure;BME280_temperature;BME280_humidity;BME280_pressure;Samples;Min_cycle;Max_cycle;Signal;HPM_P1;HPM_P2
2022/03/10 00:01:45;;;;;;;12.50;9.10;;;2.00;99.90;;;;;;5014275;28;20045;-85
2022/03/10 00:04:10;;;;;;;14.68;10.10;;;2.00;99.90;;;;;;5032516;28;20049;-86
2022/03/10 00:06:36;;;;;;;13.55;8.98;;;1.90;99.90;;;;;;5014500;28;20041;-86
2022/03/10 00:09:02;;;;;;;14.07;9.10;;;1.90;99.90;;;;;;5032193;28;20143;-87
2022/03/10 00:11:28;;;;;;;15.48;8.80;;;1.90;99.90;;;;;;5032119;28;20045;-86
2022/03/10 00:13:54;;;;;;;13.88;8.60;;;1.90;99.90;;;;;;5014480;28;20064;-86
2022/03/10 00:16:20;;;;;;;17.13;9.65;;;1.90;99.90;;;;;;5031915;28;20049;-86
2022/03/10 00:18:46;;;;;;;13.85;9.30;;;1.90;99.90;;;;;;5015046;28;20050;-86
2022/03/10 00:21:12;;;;;;;15.13;9.57;;;1.90;99.90;;;;;;5032798;28;20095;-86
2022/03/10 00:23:37;;;;;;;12.93;8.52;;;1.80;99.90;;;;;;5014010;28;20687;-87
2022/03/10 00:26:03;;;;;;;11.18;8.40;;;1.80;99.90;;;;;;5031670;28;20049;-85
2022/03/10 00:28:28;;;;;;;14.43;9.38;;;1.70;99.90;;;;;;5013881;28;20495;-87
2022/03/10 00:30:54;;;;;;;17.02;10.02;;;1.70;99.90;;;;;;5014175;28;20076;-87
2022/03/10 00:33:19;;;;;;;16.60;9.23;;;1.70;99.90;;;;;;5031979;28;20049;-87
2022/03/10 00:35:45;;;;;;;11.63;8.93;;;1.70;99.90;;;;;;5014081;28;20053;-87
2022/03/10 00:38:10;;;;;;;11.85;9.30;;;1.60;99.90;;;;;;5013971;28;20044;-87
2022/03/10 00:40:36;;;;;;;14.43;8.85;;;1.60;99.90;;;;;;5013994;28;20077;-87
2022/03/10 00:43:02;;;;;;;15.50;8.73;;;1.60;99.90;;;;;;5032521;28;20045;-86
2022/03/10 00:45:27;;;;;;;11.98;8.75;;;1.50;99.90;;;;;;5032519;28;20037;-86
2022/03/10 00:47:53;;;;;;;13.10;9.18;;;1.60;99.90;;;;;;5051389;28;20092;-86
2022/03/10 00:50:20;;;;;;;13.55;9.10;;;1.60;99.90;;;;;;5033558;28;20041;-86
2022/03/10 00:52:47;;;;;;;16.40;9.18;;;1.60;99.90;;;;;;5050326;28;20053;-86
2022/03/10 00:55:17;;;;;;;15.68;9.50;;;1.70;99.90;;;;;;5039846;28;20765;-86
2022/03/10 00:57:43;;;;;;;14.38;8.60;;;1.70;99.90;;;;;;5031045;28;20430;-86
2022/03/10 01:00:09;;;;;;;19.85;9.48;;;1.70;99.90;;;;;;5013857;28;20061;-85
2022/03/10 01:02:36;;;;;;;11.02;8.55;;;1.80;99.90;;;;;;5030357;28;20045;-87
2022/03/10 01:05:06;;;;;;;11.88;8.82;;;1.80;99.90;;;;;;5031239;28;20053;-86
2022/03/10 01:07:33;;;;;;;16.80;8.88;;;1.90;99.90;;;;;;5013255;28;20053;-86
2022/03/10 01:09:58;;;;;;;14.15;8.65;;;1.90;99.90;;;;;;5031482;28;20120;-87
2022/03/10 01:12:25;;;;;;;14.50;9.43;;;1.90;99.90;;;;;;5013388;28;20120;-86
2022/03/10 01:14:51;;;;;;;14.98;9.05;;;2.10;99.90;;;;;;5013750;28;20056;-85
2022/03/10 01:17:16;;;;;;;13.70;9.35;;;2.00;99.90;;;;;;5013765;28;20427;-86
2022/03/10 01:19:42;;;;;;;15.80;9.20;;;1.90;99.90;;;;;;5030717;28;20290;-87
2022/03/10 01:22:07;;;;;;;12.13;8.88;;;2.00;99.90;;;;;;5031334;28;20052;-86
2022/03/10 01:24:34;;;;;;;13.80;8.98;;;2.00;99.90;;;;;;5013432;28;20480;-86
2022/03/10 01:27:00;;;;;;;14.85;9.65;;;2.00;99.90;;;;;;5013304;28;20042;-85
2022/03/10 01:29:25;;;;;;;12.35;7.78;;;2.00;99.90;;;;;;5013461;28;20084;-87
2022/03/10 01:31:51;;;;;;;13.82;8.13;;;2.00;99.90;;;;;;5031754;28;20071;-87
2022/03/10 01:34:16;;;;;;;14.13;9.05;;;2.10;99.90;;;;;;5031517;28;20052;-87
2022/03/10 01:36:42;;;;;;;12.50;8.88;;;2.00;99.90;;;;;;5031032;28;20452;-87
2022/03/10 01:39:08;;;;;;;13.15;9.27;;;1.90;99.90;;;;;;5034727;28;20558;-88
2022/03/10 01:41:34;;;;;;;15.70;8.77;;;1.80;99.90;;;;;;5034883;28;20068;-87
2022/03/10 01:44:08;;;;;;;18.73;9.68;;;1.70;99.90;;;;;;5035484;28;20053;-86
2022/03/10 01:46:35;;;;;;;13.85;9.65;;;1.70;99.90;;;;;;5035004;28;20095;-87
2022/03/10 01:49:00;;;;;;;16.67;9.77;;;1.60;99.90;;;;;;5017772;28;20053;-87
2022/03/10 01:51:27;;;;;;;12.23;9.50;;;1.50;99.90;;;;;;5017450;28;20098;-87
2022/03/10 01:53:53;;;;;;;14.13;9.65;;;1.60;99.90;;;;;;5002693;28;20047;-86
2022/03/10 01:56:20;;;;;;;13.07;8.95;;;1.50;99.90;;;;;;5031851;28;20052;-86
2022/03/10 01:58:46;;;;;;;13.77;8.85;;;1.50;99.90;;;;;;5016953;28;20084;-86
2022/03/10 02:01:13;;;;;;;13.68;8.35;;;1.50;99.90;;;;;;5017254;28;20045;-86
2022/03/10 02:03:40;;;;;;;14.15;8.88;;;1.50;99.90;;;;;;5017670;28;20124;-85
2022/03/10 02:06:06;;;;;;;14.80;8.93;;;1.70;99.90;;;;;;5017287;28;20050;-86
2022/03/10 02:11:18;;;;;;;16.02;9.80;;;1.60;99.90;;;;;;5035182;28;20077;-86
2022/03/10 02:13:43;;;;;;;13.77;9.02;;;1.60;99.90;;;;;;5035211;28;20053;-85
2022/03/10 02:18:54;;;;;;;16.35;9.15;;;1.60;99.90;;;;;;5041860;28;20053;-85
2022/03/10 02:21:20;;;;;;;13.70;9.07;;;1.70;99.90;;;;;;5037531;28;20045;-85
2022/03/10 02:23:46;;;;;;;15.40;9.30;;;1.70;99.90;;;;;;5016458;28;20056;-84
2022/03/10 02:26:12;;;;;;;12.18;9.00;;;1.70;99.90;;;;;;5016986;28;20407;-84
2022/03/10 02:28:39;;;;;;;18.48;10.45;;;1.70;99.90;;;;;;5016405;28;20049;-86
2022/03/10 02:31:04;;;;;;;12.05;8.45;;;1.80;99.90;;;;;;5017308;28;20136;-83
2022/03/10 02:33:30;;;;;;;16.20;8.70;;;1.70;99.90;;;;;;5016358;28;20133;-83
2022/03/10 02:35:55;;;;;;;13.82;8.65;;;1.70;99.90;;;;;;5034552;28;20079;-84
2022/03/10 02:38:21;;;;;;;13.95;7.97;;;1.70;99.90;;;;;;5034937;28;20072;-84
2022/03/10 02:40:48;;;;;;;11.80;8.60;;;1.70;99.90;;;;;;5034246;28;20042;-84
2022/03/10 02:43:15;;;;;;;13.85;8.40;;;1.70;99.90;;;;;;5033681;28;20050;-85
2022/03/10 02:45:41;;;;;;;14.52;9.32;;;1.70;99.90;;;;;;5016495;28;20041;-84
2022/03/10 02:48:06;;;;;;;13.73;9.13;;;1.60;99.90;;;;;;5034060;28;20103;-84
2022/03/10 02:50:32;;;;;;;20.58;9.70;;;1.60;99.90;;;;;;5015355;28;20072;-85
2022/03/10 02:52:57;;;;;;;14.48;9.23;;;1.60;99.90;;;;;;5016889;28;20442;-84
2022/03/10 02:55:23;;;;;;;14.80;9.50;;;1.50;99.90;;;;;;5016492;28;20483;-85
2022/03/10 02:57:49;;;;;;;15.18;10.13;;;1.70;99.90;;;;;;5012942;28;20058;-85
2022/03/10 03:00:16;;;;;;;14.25;8.40;;;1.50;99.90;;;;;;5029938;28;20061;-85
2022/03/10 03:02:42;;;;;;;12.23;9.18;;;1.40;99.90;;;;;;5013175;28;20050;-84
2022/03/10 03:05:12;;;;;;;18.60;9.40;;;1.50;99.90;;;;;;5014598;28;20053;-86
2022/03/10 03:07:38;;;;;;;16.13;9.20;;;1.40;99.90;;;;;;5013192;28;20041;-85
2022/03/10 03:10:05;;;;;;;14.27;8.95;;;1.30;99.90;;;;;;5014370;28;20053;-84
2022/03/10 03:12:31;;;;;;;16.20;10.05;;;1.30;99.90;;;;;;5012995;28;20046;-84
2022/03/10 03:14:56;;;;;;;14.00;9.30;;;1.30;99.90;;;;;;5012895;28;20086;-85
2022/03/10 03:17:24;;;;;;;14.10;9.30;;;1.30;99.90;;;;;;5013456;28;20496;-86
2022/03/10 03:19:53;;;;;;;15.05;9.70;;;0.80;99.90;;;;;;5014432;28;20041;-85
2022/03/10 03:22:19;;;;;;;17.98;9.45;;;1.30;99.90;;;;;;5013047;28;20050;-84
2022/03/10 03:24:45;;;;;;;17.25;10.02;;;1.20;99.90;;;;;;5012555;28;20045;-84
2022/03/10 03:27:14;;;;;;;16.38;9.95;;;1.40;99.90;;;;;;5013788;28;20076;-85
2022/03/10 03:29:40;;;;;;;12.95;9.73;;;1.20;99.90;;;;;;5012471;28;20052;-85
2022/03/10 03:32:06;;;;;;;13.57;8.88;;;1.20;99.90;;;;;;5013800;28;20046;-85
2022/03/10 03:34:32;;;;;;;15.02;10.02;;;1.20;99.90;;;;;;5012846;28;20058;-85
2022/03/10 03:36:57;;;;;;;11.88;8.93;;;1.10;99.90;;;;;;5014041;28;20049;-85
2022/03/10 03:39:23;;;;;;;13.80;8.95;;;1.10;99.90;;;;;;5013528;28;20056;-85
2022/03/10 03:41:49;;;;;;;15.50;8.93;;;1.00;99.90;;;;;;5013885;28;20048;-85
2022/03/10 03:44:14;;;;;;;16.05;9.75;;;1.00;99.90;;;;;;5013437;28;20073;-86
2022/03/10 03:46:41;;;;;;;15.52;10.70;;;1.10;99.90;;;;;;5011073;28;20069;-84
2022/03/10 03:49:08;;;;;;;15.02;10.10;;;0.80;99.90;;;;;;5028531;28;20046;-85
2022/03/10 03:51:34;;;;;;;15.13;10.02;;;0.70;99.90;;;;;;5027990;28;20054;-85
2022/03/10 03:54:00;;;;;;;14.30;9.43;;;0.70;99.90;;;;;;5012248;28;20049;-84
2022/03/10 03:56:26;;;;;;;14.82;9.52;;;0.70;99.90;;;;;;5013811;28;20042;-84
2022/03/10 03:58:51;;;;;;;17.83;10.55;;;0.70;99.90;;;;;;5012095;28;20234;-84
2022/03/10 04:01:17;;;;;;;14.93;10.32;;;0.70;99.90;;;;;;5011058;28;20108;-85
2022/03/10 04:03:43;;;;;;;13.38;9.00;;;0.70;99.90;;;;;;5023304;28;20135;-85
2022/03/10 04:06:09;;;;;;;11.88;9.02;;;0.70;99.90;;;;;;5033453;28;20052;-85
2022/03/10 04:08:34;;;;;;;14.63;10.43;;;0.80;99.90;;;;;;5032569;28;20052;-85
2022/03/10 04:11:01;;;;;;;17.13;10.32;;;0.70;99.90;;;;;;5033444;28;20076;-86
2022/03/10 04:13:26;;;;;;;15.05;8.93;;;0.80;99.90;;;;;;5031607;28;20187;-86
2022/03/10 04:15:53;;;;;;;14.63;9.80;;;0.80;99.90;;;;;;5031085;28;20128;-85
2022/03/10 04:18:19;;;;;;;14.43;9.25;;;0.90;99.90;;;;;;5032324;28;20053;-84
2022/03/10 04:20:45;;;;;;;15.38;9.73;;;0.90;99.90;;;;;;5031009;28;20041;-85
2022/03/10 04:23:19;;;;;;;15.32;10.23;;;1.30;99.90;;;;;;5051080;27;1191438;-85
2022/03/10 04:25:45;;;;;;;17.35;9.13;;;1.00;99.90;;;;;;5068568;28;20053;-85
2022/03/10 04:28:10;;;;;;;16.67;9.93;;;1.20;99.90;;;;;;5069128;28;20052;-85
2022/03/10 04:30:38;;;;;;;17.23;10.27;;;1.10;99.90;;;;;;5068029;28;20037;-86
2022/03/10 04:33:04;;;;;;;15.35;9.75;;;1.10;99.90;;;;;;5068763;28;20049;-84
2022/03/10 04:35:29;;;;;;;21.38;9.55;;;1.20;99.90;;;;;;5067725;28;20128;-85
2022/03/10 04:37:55;;;;;;;17.85;9.57;;;1.20;99.90;;;;;;5067806;28;20131;-83
2022/03/10 04:40:22;;;;;;;15.85;9.57;;;1.20;99.90;;;;;;5068636;28;20052;-85
2022/03/10 04:42:50;;;;;;;19.35;8.93;;;1.20;99.90;;;;;;5069539;28;20068;-85
2022/03/10 04:45:16;;;;;;;14.73;8.68;;;1.20;99.90;;;;;;5067759;28;20048;-85
2022/03/10 04:47:42;;;;;;;13.27;8.65;;;1.20;99.90;;;;;;5067177;28;20478;-85
2022/03/10 04:50:10;;;;;;;15.65;9.77;;;1.20;99.90;;;;;;5066925;28;20052;-85
2022/03/10 04:52:36;;;;;;;14.20;9.20;;;1.10;99.90;;;;;;5067142;28;20055;-85
2022/03/10 04:55:02;;;;;;;14.35;9.75;;;1.10;99.90;;;;;;5067185;28;20107;-86
2022/03/10 04:57:28;;;;;;;15.95;9.98;;;1.10;99.90;;;;;;5067229;28;20463;-85
2022/03/10 04:59:53;;;;;;;15.40;9.60;;;1.20;99.90;;;;;;5066974;28;20124;-83
2022/03/10 05:02:19;;;;;;;17.45;10.63;;;1.10;99.90;;;;;;5060396;28;20041;-85
2022/03/10 05:04:45;;;;;;;16.90;9.85;;;1.00;99.90;;;;;;5050801;28;20049;-85
2022/03/10 05:07:11;;;;;;;13.02;9.13;;;1.10;99.90;;;;;;5054786;28;20120;-85
2022/03/10 05:09:37;;;;;;;15.55;9.15;;;1.10;99.90;;;;;;5051338;28;20045;-84
2022/03/10 05:12:03;;;;;;;17.63;9.93;;;1.10;99.90;;;;;;5048331;28;20053;-85
2022/03/10 05:14:29;;;;;;;14.95;9.38;;;1.10;99.90;;;;;;5045941;28;20041;-85
2022/03/10 05:16:54;;;;;;;15.35;10.10;;;1.10;99.90;;;;;;5046770;28;20045;-85
2022/03/10 05:19:20;;;;;;;13.73;8.60;;;1.10;99.90;;;;;;5046011;28;20041;-85
2022/03/10 05:21:45;;;;;;;15.45;9.45;;;1.10;99.90;;;;;;5047125;28;20103;-84
2022/03/10 05:24:12;;;;;;;14.05;9.57;;;1.10;99.90;;;;;;5046500;28;20041;-85
2022/03/10 05:26:38;;;;;;;15.65;9.13;;;1.00;99.90;;;;;;5047347;28;20041;-86
2022/03/10 05:29:04;;;;;;;14.15;8.85;;;1.10;99.90;;;;;;5046295;28;20053;-85
2022/03/10 05:31:30;;;;;;;19.48;9.25;;;1.00;99.90;;;;;;5047295;28;20045;-85
2022/03/10 05:33:56;;;;;;;14.35;9.75;;;0.90;99.90;;;;;;5036979;28;20056;-85
2022/03/10 05:36:22;;;;;;;13.80;9.15;;;0.90;99.90;;;;;;5037991;28;20077;-85
2022/03/10 05:38:47;;;;;;;17.00;9.10;;;0.80;99.90;;;;;;5033513;28;20041;-85
2022/03/10 05:41:13;;;;;;;12.27;8.13;;;0.80;99.90;;;;;;5034159;28;20053;-86
2022/03/10 05:43:38;;;;;;;12.45;8.30;;;0.70;99.90;;;;;;5047753;28;20399;-84
2022/03/10 05:46:04;;;;;;;11.80;8.93;;;0.70;99.90;;;;;;5045531;28;20099;-85
2022/03/10 05:48:30;;;;;;;16.77;9.23;;;0.70;99.90;;;;;;5032361;28;20057;-85
2022/03/10 05:50:56;;;;;;;13.38;8.20;;;0.60;99.90;;;;;;5034016;28;20038;-85
2022/03/10 05:53:22;;;;;;;15.13;8.82;;;0.60;99.90;;;;;;5049732;28;20041;-85
2022/03/10 05:55:47;;;;;;;17.63;10.00;;;0.60;99.90;;;;;;5041777;28;20045;-85
2022/03/10 05:58:13;;;;;;;14.68;9.13;;;0.80;99.90;;;;;;5037754;28;20095;-85
2022/03/10 06:00:39;;;;;;;14.40;9.75;;;0.50;99.90;;;;;;5031972;28;20816;-85
2022/03/10 06:03:06;;;;;;;12.20;8.38;;;0.50;99.90;;;;;;5033949;28;20531;-84
2022/03/10 06:05:32;;;;;;;13.32;8.90;;;0.60;99.90;;;;;;5033362;28;20558;-84
2022/03/10 06:07:58;;;;;;;15.18;9.35;;;0.50;99.90;;;;;;5036583;28;20049;-86
2022/03/10 06:10:24;;;;;;;12.82;9.45;;;0.50;99.90;;;;;;5046494;28;20053;-86
2022/03/10 06:12:49;;;;;;;14.80;8.48;;;0.60;99.90;;;;;;5036433;28;20080;-84
2022/03/10 06:15:15;;;;;;;11.30;7.75;;;0.60;99.90;;;;;;5032083;28;20053;-85
2022/03/10 06:17:41;;;;;;;15.80;8.95;;;0.60;99.90;;;;;;5031877;28;20079;-85
2022/03/10 06:20:08;;;;;;;12.88;8.45;;;0.70;99.90;;;;;;5032660;28;20510;-85
2022/03/10 06:22:34;;;;;;;13.55;8.55;;;0.60;99.90;;;;;;5047284;28;20145;-85
2022/03/10 06:24:59;;;;;;;15.88;9.60;;;0.70;99.90;;;;;;5037475;28;20140;-85
2022/03/10 06:27:25;;;;;;;16.90;9.23;;;0.70;99.90;;;;;;5031823;28;20138;-86
2022/03/10 06:29:52;;;;;;;15.32;9.25;;;0.80;99.90;;;;;;5031553;28;20053;-84
2022/03/10 06:32:19;;;;;;;14.52;9.20;;;0.80;99.90;;;;;;5033255;28;20494;-84
2022/03/10 06:34:46;;;;;;;13.20;9.13;;;0.80;99.90;;;;;;5032802;28;20461;-85
2022/03/10 06:37:12;;;;;;;14.93;9.13;;;0.90;99.90;;;;;;5031327;28;20084;-84
2022/03/10 06:39:38;;;;;;;14.25;9.05;;;0.90;99.90;;;;;;5032697;28;20750;-85
2022/03/10 06:42:05;;;;;;;13.23;8.82;;;0.90;99.90;;;;;;5032542;28;20053;-84
2022/03/10 06:44:31;;;;;;;13.15;8.70;;;0.90;99.90;;;;;;5030495;28;20056;-85
2022/03/10 06:46:57;;;;;;;13.77;8.95;;;0.90;99.90;;;;;;5032174;28;20041;-84
2022/03/10 06:49:23;;;;;;;12.65;8.27;;;1.00;99.90;;;;;;5035433;28;20136;-85
2022/03/10 06:51:49;;;;;;;16.08;9.65;;;1.00;99.90;;;;;;5037993;28;20487;-85
2022/03/10 06:54:15;;;;;;;16.52;11.80;;;1.00;99.90;;;;;;5051426;28;20549;-85
2022/03/10 06:56:41;;;;;;;12.30;8.82;;;1.10;99.90;;;;;;5052178;28;20052;-85
2022/03/10 06:59:07;;;;;;;16.67;8.77;;;1.10;99.90;;;;;;5053047;28;20041;-83
2022/03/10 07:01:33;;;;;;;16.65;9.68;;;1.10;99.90;;;;;;5052449;28;20506;-85
2022/03/10 07:03:59;;;;;;;13.05;9.25;;;1.10;99.90;;;;;;5050995;28;20454;-85
2022/03/10 07:06:25;;;;;;;15.32;9.35;;;1.20;99.90;;;;;;5050717;28;20091;-85
2022/03/10 07:08:52;;;;;;;17.77;9.95;;;1.30;99.90;;;;;;5052381;28;20041;-84
2022/03/10 07:11:18;;;;;;;14.80;9.95;;;1.50;99.90;;;;;;5052221;28;20047;-85
2022/03/10 07:13:44;;;;;;;17.75;10.68;;;1.50;99.90;;;;;;5050707;28;20074;-85
2022/03/10 07:16:10;;;;;;;14.82;10.02;;;1.60;99.90;;;;;;5052125;28;20044;-84
2022/03/10 07:18:36;;;;;;;13.07;7.88;;;1.60;99.90;;;;;;5051311;28;20041;-85
2022/03/10 07:21:04;;;;;;;14.25;9.43;;;1.80;99.90;;;;;;5051808;28;20084;-85
2022/03/10 07:23:30;;;;;;;14.48;9.13;;;2.00;99.90;;;;;;5050129;28;20470;-85
2022/03/10 07:25:56;;;;;;;16.40;9.38;;;2.00;99.90;;;;;;5032576;28;20053;-85
2022/03/10 07:28:21;;;;;;;16.08;11.27;;;2.20;99.90;;;;;;5035851;28;20037;-85
2022/03/10 07:30:47;;;;;;;16.63;10.55;;;2.20;99.90;;;;;;5036178;28;20091;-85
2022/03/10 07:33:12;;;;;;;15.43;9.63;;;2.50;99.90;;;;;;5038871;28;20966;-85
2022/03/10 07:35:38;;;;;;;14.32;9.35;;;2.40;99.90;;;;;;5047104;28;20041;-86
2022/03/10 07:38:03;;;;;;;17.20;10.52;;;2.70;99.90;;;;;;5035552;28;20048;-85
2022/03/10 07:40:29;;;;;;;12.48;8.98;;;2.60;99.90;;;;;;5030000;28;20054;-85
2022/03/10 07:42:55;;;;;;;13.52;10.27;;;2.80;99.90;;;;;;5035432;28;20053;-85
2022/03/10 07:45:21;;;;;;;15.73;10.18;;;2.90;99.90;;;;;;5038454;28;20092;-86
2022/03/10 07:47:46;;;;;;;15.88;10.15;;;3.00;99.90;;;;;;5049920;28;20037;-86
2022/03/10 07:50:12;;;;;;;13.98;9.13;;;3.10;99.90;;;;;;5030397;28;20483;-86
2022/03/10 07:52:37;;;;;;;14.98;9.70;;;3.20;99.90;;;;;;5029652;28;20133;-87
2022/03/10 07:55:06;;;;;;;18.25;10.95;;;3.30;99.90;;;;;;5031738;28;20049;-86
2022/03/10 07:57:31;;;;;;;14.80;10.80;;;3.40;99.90;;;;;;5030762;28;20076;-87
2022/03/10 07:59:57;;;;;;;13.75;10.25;;;3.50;99.90;;;;;;5032879;28;20088;-86
2022/03/10 08:02:22;;;;;;;15.65;10.73;;;3.60;99.90;;;;;;5041592;28;20743;-86
2022/03/10 08:04:48;;;;;;;12.77;9.48;;;3.70;99.90;;;;;;5048707;28;20122;-83
2022/03/10 08:07:14;;;;;;;18.35;11.02;;;3.80;99.90;;;;;;5036665;28;20459;-83
2022/03/10 08:09:39;;;;;;;13.80;8.85;;;4.00;99.90;;;;;;5037823;28;20123;-86
2022/03/10 08:12:05;;;;;;;15.75;10.02;;;4.00;99.90;;;;;;5042287;28;20052;-86
2022/03/10 08:14:31;;;;;;;14.70;9.85;;;4.20;99.90;;;;;;5050067;28;20049;-87
2022/03/10 08:16:56;;;;;;;14.07;10.68;;;4.30;99.90;;;;;;5052134;28;20139;-84
2022/03/10 08:19:22;;;;;;;17.15;10.45;;;4.40;99.90;;;;;;5052587;28;20049;-85
2022/03/10 08:21:48;;;;;;;16.92;10.70;;;4.60;99.90;;;;;;5050138;28;20139;-86
2022/03/10 08:24:14;;;;;;;13.68;9.38;;;4.70;99.90;;;;;;5051645;28;20049;-85
2022/03/10 08:26:40;;;;;;;19.90;10.05;;;4.80;99.90;;;;;;5048223;28;20741;-87
2022/03/10 08:29:06;;;;;;;13.30;8.70;;;4.90;99.90;;;;;;5030000;28;20037;-86
2022/03/10 08:31:32;;;;;;;17.90;11.00;;;5.00;99.90;;;;;;5031409;28;20091;-86
2022/03/10 08:33:57;;;;;;;14.18;9.07;;;5.10;99.90;;;;;;5031886;28;20041;-79
2022/03/10 08:36:23;;;;;;;13.40;10.73;;;5.20;99.90;;;;;;5045772;28;20383;-79
2022/03/10 08:38:49;;;;;;;17.77;11.25;;;5.40;99.90;;;;;;5048091;28;20048;-84
2022/03/10 08:41:14;;;;;;;13.57;9.75;;;5.50;99.90;;;;;;5048278;28;20052;-81
2022/03/10 08:43:40;;;;;;;14.90;9.98;;;5.60;99.90;;;;;;5039424;28;20045;-77
2022/03/10 08:46:06;;;;;;;18.42;10.88;;;5.70;99.90;;;;;;5034133;28;20033;-77
2022/03/10 08:48:34;;;;;;;16.23;11.05;;;5.80;99.90;;;;;;5039020;28;20052;-78
2022/03/10 08:51:01;;;;;;;17.42;11.73;;;6.00;99.90;;;;;;5031545;28;20102;-79
2022/03/10 08:53:26;;;;;;;19.67;10.77;;;6.10;99.90;;;;;;5036082;28;20045;-77
2022/03/10 08:55:52;;;;;;;14.88;10.27;;;6.20;99.90;;;;;;5033045;28;20377;-78
2022/03/10 08:58:18;;;;;;;15.80;11.32;;;6.30;99.90;;;;;;5029502;28;20052;-81
2022/03/10 09:00:44;;;;;;;17.75;10.48;;;6.40;99.90;;;;;;5029438;28;20483;-76
2022/03/10 09:03:10;;;;;;;17.77;10.68;;;6.50;99.90;;;;;;5035500;28;20590;-76
2022/03/10 09:05:37;;;;;;;14.95;10.85;;;6.60;99.90;;;;;;5038558;28;20041;-76
2022/03/10 09:08:03;;;;;;;14.93;11.10;;;6.70;99.90;;;;;;5041517;28;20041;-76
2022/03/10 09:10:29;;;;;;;15.55;10.13;;;6.90;99.90;;;;;;5046028;28;20050;-75
2022/03/10 09:12:56;;;;;;;18.15;10.85;;;7.00;99.90;;;;;;5033045;28;20045;-75
2022/03/10 09:15:22;;;;;;;17.17;12.00;;;7.20;99.90;;;;;;5035878;28;20478;-75
2022/03/10 09:17:48;;;;;;;16.63;11.55;;;7.30;99.90;;;;;;5034607;28;20716;-79
2022/03/10 09:20:14;;;;;;;12.98;10.25;;;7.50;99.90;;;;;;5047840;28;20107;-81
2022/03/10 09:22:41;;;;;;;15.45;11.00;;;7.60;99.90;;;;;;5040838;28;20152;-82
2022/03/10 09:25:08;;;;;;;17.80;11.80;;;7.70;99.90;;;;;;5032343;28;20045;-84
2022/03/10 09:27:38;;;;;;;17.95;10.40;;;7.80;99.90;;;;;;5051509;28;20403;-80
2022/03/10 09:30:05;;;;;;;18.75;11.88;;;8.00;99.90;;;;;;5043760;28;20136;-79
2022/03/10 09:32:35;;;;;;;14.50;11.00;;;8.10;99.90;;;;;;5050568;28;20052;-79
2022/03/10 09:35:01;;;;;;;16.70;11.18;;;8.20;99.80;;;;;;5041762;28;20080;-81
2022/03/10 09:37:26;;;;;;;18.75;12.52;;;8.30;99.90;;;;;;5045190;28;20033;-76
2022/03/10 09:39:52;;;;;;;18.13;11.90;;;8.50;99.00;;;;;;5051768;28;20048;-80
2022/03/10 09:42:21;;;;;;;17.55;11.43;;;8.50;97.80;;;;;;5040332;28;20053;-77
2022/03/10 09:44:47;;;;;;;16.45;11.38;;;8.70;97.50;;;;;;5051457;28;20045;-76
2022/03/10 09:47:13;;;;;;;16.55;12.50;;;8.80;96.00;;;;;;5040188;28;20079;-76
2022/03/10 09:49:40;;;;;;;14.20;10.80;;;8.90;95.70;;;;;;5046696;28;20153;-76
2022/03/10 09:52:08;;;;;;;17.52;11.20;;;9.00;94.10;;;;;;5040023;28;20067;-79
2022/03/10 09:54:34;;;;;;;14.55;11.07;;;9.10;93.70;;;;;;5040727;28;20059;-76
2022/03/10 09:57:01;;;;;;;15.95;11.63;;;9.10;93.30;;;;;;5033737;28;20049;-83
2022/03/10 09:59:27;;;;;;;15.60;11.38;;;9.30;93.40;;;;;;5040029;28;20048;-79
2022/03/10 10:01:54;;;;;;;18.40;12.07;;;9.30;92.80;;;;;;5053580;28;20056;-80
2022/03/10 10:04:21;;;;;;;15.07;11.90;;;9.40;92.50;;;;;;5053838;28;20166;-81
2022/03/10 10:06:59;;;;;;;17.85;11.93;;;9.50;91.30;;;;;;5040044;28;20052;-81
2022/03/10 10:09:45;;;;;;;20.05;12.90;;;9.50;91.20;;;;;;5046874;28;20133;-81
2022/03/10 10:12:13;;;;;;;22.55;12.43;;;9.60;91.40;;;;;;5047201;28;20049;-80
2022/03/10 10:14:41;;;;;;;29.65;11.40;;;9.70;90.50;;;;;;5034970;28;20064;-79
2022/03/10 10:17:07;;;;;;;14.43;11.90;;;9.70;90.50;;;;;;5044931;28;20079;-81
2022/03/10 10:19:34;;;;;;;18.52;11.52;;;9.80;90.50;;;;;;5046221;28;20056;-83
2022/03/10 10:22:14;;;;;;;17.92;13.20;;;9.90;89.40;;;;;;5047201;28;20142;-81
2022/03/10 10:24:49;;;;;;;18.45;12.68;;;10.10;83.70;;;;;;5032874;28;20132;-79
2022/03/10 10:27:17;;;;;;;20.38;12.02;;;10.10;83.50;;;;;;5033438;28;20081;-80
2022/03/10 10:29:51;;;;;;;18.05;12.07;;;10.20;84.10;;;;;;5039785;28;20049;-82
2022/03/10 10:32:26;;;;;;;19.20;12.13;;;10.30;83.20;;;;;;5033417;28;20124;-81
2022/03/10 10:35:05;;;;;;;18.85;12.23;;;10.50;81.90;;;;;;5031468;28;20387;-81
2022/03/10 10:37:31;;;;;;;18.02;12.32;;;10.50;78.70;;;;;;5033404;28;20450;-80
2022/03/10 10:39:58;;;;;;;18.80;13.57;;;10.50;80.20;;;;;;5042121;28;20095;-81
2022/03/10 10:42:28;;;;;;;21.02;13.77;;;10.60;78.70;;;;;;5030576;28;20083;-82
2022/03/10 10:44:54;;;;;;;19.83;13.32;;;10.60;78.70;;;;;;5031497;28;20049;-81
2022/03/10 10:47:20;;;;;;;21.25;13.23;;;10.70;75.90;;;;;;5032615;28;20100;-80
2022/03/10 10:49:56;;;;;;;23.10;13.00;;;10.80;76.70;;;;;;5048703;28;20036;-80
2022/03/10 10:52:23;;;;;;;19.95;13.52;;;10.80;73.40;;;;;;5052361;28;20072;-79
2022/03/10 10:54:48;;;;;;;20.45;13.00;;;11.00;74.40;;;;;;5051263;28;20088;-79
2022/03/10 10:57:21;;;;;;;15.80;12.40;;;11.00;74.30;;;;;;5051487;28;20463;-80
2022/03/10 10:59:47;;;;;;;21.52;12.23;;;11.10;73.40;;;;;;5051887;28;20103;-80
2022/03/10 11:02:18;;;;;;;20.08;13.98;;;11.20;72.90;;;;;;5050625;28;20048;-79
2022/03/10 11:04:48;;;;;;;18.23;13.25;;;11.20;72.70;;;;;;5031925;28;20037;-80
2022/03/10 11:07:14;;;;;;;17.80;12.52;;;11.30;72.30;;;;;;5034417;28;20373;-77
2022/03/10 11:09:45;;;;;;;20.85;14.48;;;11.40;72.30;;;;;;5034676;28;20034;-76
2022/03/10 11:12:13;;;;;;;21.30;14.30;;;11.20;72.30;;;;;;5043301;28;20068;-78
2022/03/10 11:14:40;;;;;;;19.52;13.50;;;11.90;70.70;;;;;;5037338;28;20487;-78
2022/03/10 11:17:07;;;;;;;22.75;12.63;;;11.60;71.50;;;;;;5031446;28;20091;-78
2022/03/10 11:19:36;;;;;;;20.27;14.75;;;11.70;71.50;;;;;;5031084;28;20042;-78
2022/03/10 11:22:29;;;;;;;18.48;12.82;;;11.80;70.00;;;;;;5031167;28;20057;-79
2022/03/10 11:25:07;;;;;;;19.50;14.23;;;11.80;70.50;;;;;;5029552;28;20060;-78
2022/03/10 11:27:41;;;;;;;20.15;13.85;;;11.90;68.80;;;;;;5030149;28;20083;-79
2022/03/10 11:30:08;;;;;;;20.05;14.50;;;12.00;69.10;;;;;;5031245;28;20488;-75
2022/03/10 11:32:33;;;;;;;22.58;13.48;;;12.10;69.30;;;;;;5028730;28;20057;-78
2022/03/10 11:35:00;;;;;;;22.40;14.65;;;12.10;68.90;;;;;;5031217;28;20060;-77
2022/03/10 11:37:40;;;;;;;19.20;13.73;;;12.30;69.00;;;;;;5033085;28;20041;-74
2022/03/10 11:40:12;;;;;;;18.13;12.68;;;12.30;66.60;;;;;;5049776;28;20045;-74
2022/03/10 11:42:38;;;;;;;22.30;14.32;;;12.30;67.60;;;;;;5043011;28;20064;-73
2022/03/10 11:45:21;;;;;;;19.20;13.27;;;12.30;66.70;;;;;;5028604;28;20089;-72
2022/03/10 11:47:48;;;;;;;17.75;13.15;;;12.40;64.50;;;;;;5029879;28;20050;-72
2022/03/10 11:50:23;;;;;;;16.20;12.27;;;12.40;65.70;;;;;;5030385;28;20050;-73
2022/03/10 11:53:00;;;;;;;18.48;12.48;;;12.50;65.90;;;;;;5028010;28;20384;-73
2022/03/10 11:55:46;;;;;;;19.05;13.05;;;12.60;65.60;;;;;;5029686;28;20041;-73
2022/03/10 11:58:13;;;;;;;19.25;12.60;;;12.70;63.40;;;;;;5029846;28;20046;-74
2022/03/10 12:00:44;;;;;;;17.73;12.02;;;12.70;63.90;;;;;;5030255;28;20047;-73
2022/03/10 12:03:26;;;;;;;17.42;12.68;;;12.80;64.60;;;;;;5031160;28;20060;-75
2022/03/10 12:05:53;;;;;;;17.13;13.10;;;12.90;61.40;;;;;;5039229;28;20067;-74
2022/03/10 12:08:24;;;;;;;22.20;13.77;;;13.00;62.40;;;;;;5035221;28;20452;-74
2022/03/10 12:10:50;;;;;;;17.55;13.27;;;13.00;61.90;;;;;;5034886;28;20041;-74
2022/03/10 12:13:28;;;;;;;17.00;13.00;;;13.10;62.60;;;;;;5032854;28;20061;-75
2022/03/10 12:15:55;;;;;;;20.55;13.00;;;13.20;61.00;;;;;;5030673;28;20132;-75
2022/03/10 12:18:43;;;;;;;19.58;13.73;;;13.20;61.40;;;;;;5029575;28;20053;-74
2022/03/10 12:21:18;;;;;;;20.85;14.02;;;13.30;60.30;;;;;;5030449;28;20439;-74
2022/03/10 12:23:56;;;;;;;22.95;13.23;;;13.30;60.80;;;;;;5030503;28;20076;-74
2022/03/10 12:26:26;;;;;;;18.30;14.00;;;13.30;60.40;;;;;;5029577;28;20052;-74
2022/03/10 12:29:07;;;;;;;16.73;13.25;;;13.30;59.80;;;;;;5029163;28;20056;-74
2022/03/10 12:31:35;;;;;;;24.92;15.15;;;13.30;59.80;;;;;;5030845;28;20042;-75
2022/03/10 12:34:12;;;;;;;21.45;14.73;;;13.40;61.50;;;;;;5030429;28;20447;-75
2022/03/10 12:36:51;;;;;;;22.27;13.98;;;13.50;60.40;;;;;;5030440;28;20038;-75
2022/03/10 12:39:21;;;;;;;23.00;14.05;;;13.50;59.50;;;;;;5030851;28;20042;-74
2022/03/10 12:41:54;;;;;;;21.58;13.18;;;13.50;60.10;;;;;;5029897;28;20148;-74
2022/03/10 12:44:24;;;;;;;19.52;13.00;;;13.60;60.20;;;;;;5032038;28;20052;-74
2022/03/10 12:46:51;;;;;;;21.55;14.77;;;13.60;60.70;;;;;;5035383;28;20135;-74